Map

Track Data

SID SEASON NUMBER BASIN SUBBASIN NAME ISO_TIME NATURE LAT LON WMO_WIND WMO_PRES WMO_AGENCY TRACK_TYPE DIST2LAND LANDFALL IFLAG USA_AGENCY USA_ATCF_ID USA_LAT USA_LON USA_RECORD USA_STATUS USA_WIND USA_PRES USA_SSHS USA_R34_NE USA_R34_SE USA_R34_SW USA_R34_NW USA_R50_NE USA_R50_SE USA_R50_SW USA_R50_NW USA_R64_NE USA_R64_SE USA_R64_SW USA_R64_NW USA_POCI USA_ROCI USA_RMW USA_EYE TOKYO_LAT TOKYO_LON TOKYO_GRADE TOKYO_WIND TOKYO_PRES TOKYO_R50_DIR TOKYO_R50_LONG TOKYO_R50_SHORT TOKYO_R30_DIR TOKYO_R30_LONG TOKYO_R30_SHORT TOKYO_LAND CMA_LAT CMA_LON CMA_CAT CMA_WIND CMA_PRES HKO_LAT HKO_LON HKO_CAT HKO_WIND HKO_PRES NEWDELHI_LAT NEWDELHI_LON NEWDELHI_GRADE NEWDELHI_WIND NEWDELHI_PRES NEWDELHI_CI NEWDELHI_DP NEWDELHI_POCI REUNION_LAT REUNION_LON REUNION_TYPE REUNION_WIND REUNION_PRES REUNION_TNUM REUNION_CI REUNION_RMW REUNION_R34_NE REUNION_R34_SE REUNION_R34_SW REUNION_R34_NW REUNION_R50_NE REUNION_R50_SE REUNION_R50_SW REUNION_R50_NW REUNION_R64_NE REUNION_R64_SE REUNION_R64_SW REUNION_R64_NW BOM_LAT BOM_LON BOM_TYPE BOM_WIND BOM_PRES BOM_TNUM BOM_CI BOM_RMW BOM_R34_NE BOM_R34_SE BOM_R34_SW BOM_R34_NW BOM_R50_NE BOM_R50_SE BOM_R50_SW BOM_R50_NW BOM_R64_NE BOM_R64_SE BOM_R64_SW BOM_R64_NW BOM_ROCI BOM_POCI BOM_EYE BOM_POS_METHOD BOM_PRES_METHOD NADI_LAT NADI_LON NADI_CAT NADI_WIND NADI_PRES WELLINGTON_LAT WELLINGTON_LON WELLINGTON_WIND WELLINGTON_PRES DS824_LAT DS824_LON DS824_STAGE DS824_WIND DS824_PRES TD9636_LAT TD9636_LON TD9636_STAGE TD9636_WIND TD9636_PRES TD9635_LAT TD9635_LON TD9635_WIND TD9635_PRES TD9635_ROCI NEUMANN_LAT NEUMANN_LON NEUMANN_CLASS NEUMANN_WIND NEUMANN_PRES MLC_LAT MLC_LON MLC_CLASS MLC_WIND MLC_PRES USA_GUST BOM_GUST BOM_GUST_PER REUNION_GUST REUNION_GUST_PER USA_SEAHGT USA_SEARAD_NE USA_SEARAD_SE USA_SEARAD_SW USA_SEARAD_NW STORM_SPEED STORM_DIR
1872275S14070 1873 24 SI MM NOT_NAMED 1872-10-01 06:00:00 NR -14.0000 69.9000 reunion spur-split 1465 1440 _____O________ -1 -14.0000 69.9000 99 9.90000 4 227
1872275S14070 1873 24 SI MM NOT_NAMED 1872-10-01 09:00:00 NR -14.1486 69.7356 spur-split 1440 1420 _____P________ -1 -14.1486 69.7356 99 4 227
1872275S14070 1873 24 SI MM NOT_NAMED 1872-10-01 12:00:00 NR -14.2985 69.5689 spur-split 1420 1396 _____P________ -1 -14.2985 69.5689 99 4 227
1872275S14070 1873 24 SI MM NOT_NAMED 1872-10-01 15:00:00 NR -14.4510 69.3977 spur-split 1390 1366 _____P________ -1 -14.4510 69.3977 99 5 228
1872275S14070 1873 24 SI MM NOT_NAMED 1872-10-01 18:00:00 NR -14.6075 69.2200 spur-split 1366 1336 _____P________ -1 -14.6075 69.2200 99 5 228
1872275S14070 1873 24 SI MM NOT_NAMED 1872-10-01 21:00:00 NR -14.7693 69.0335 spur-split 1336 1312 _____P________ -1 -14.7693 69.0335 99 5 228
1872275S14070 1873 24 SI MM NOT_NAMED 1872-10-02 00:00:00 NR -14.9377 68.8362 spur-split 1312 1283 _____P________ -1 -14.9377 68.8362 99 5 229
1872275S14070 1873 24 SI MM NOT_NAMED 1872-10-02 03:00:00 NR -15.1142 68.6257 spur-split 1283 1253 _____P________ -1 -15.1142 68.6257 99 6 229
1872275S14070 1873 24 SI MM NOT_NAMED 1872-10-02 06:00:00 NR -15.3000 68.4000 reunion spur-split 1253 1224 _____O________ -1 -15.3000 68.4000 99 9.90000 6 230
1872275S14070 1873 24 SI MM NOT_NAMED 1872-10-02 09:00:00 NR -15.4959 68.1576 spur-split 1224 1185 _____P________ -1 -15.4959 68.1576 99 6 230
1872275S14070 1873 24 SI MM NOT_NAMED 1872-10-02 12:00:00 NR -15.7005 67.9004 spur-split 1185 1146 _____P________ -1 -15.7005 67.9004 99 7 231
1872275S14070 1873 24 SI MM NOT_NAMED 1872-10-02 15:00:00 NR -15.9117 67.6312 spur-split 1146 1117 _____P________ -1 -15.9117 67.6312 99 7 231
1872275S14070 1873 24 SI MM NOT_NAMED 1872-10-02 18:00:00 NR -16.1277 67.3526 spur-split 1117 1078 _____P________ -1 -16.1277 67.3526 99 7 231
1872275S14070 1873 24 SI MM NOT_NAMED 1872-10-02 21:00:00 NR -16.3464 67.0674 spur-split 1078 1035 _____P________ -1 -16.3464 67.0674 99 7 232
1872275S14070 1873 24 SI MM NOT_NAMED 1872-10-03 00:00:00 NR -16.5660 66.7784 spur-split 1035 997 _____P________ -1 -16.5660 66.7784 99 7 232
1872275S14070 1873 24 SI MM NOT_NAMED 1872-10-03 03:00:00 NR -16.7845 66.4883 spur-split 997 958 _____P________ -1 -16.7845 66.4883 99 7 232
1872275S14070 1873 24 SI MM NOT_NAMED 1872-10-03 06:00:00 NR -17.0000 66.2000 reunion spur-split 958 920 _____O________ -1 -17.0000 66.2000 99 9.90000 7 232
1872275S14070 1873 24 SI MM NOT_NAMED 1872-10-03 09:00:00 NR -17.2025 65.9245 spur-split 920 892 _____P________ -1 -17.2025 65.9245 99 7 233
1872275S14070 1873 24 SI MM NOT_NAMED 1872-10-03 12:00:00 NR -17.4027 65.6491 spur-split 882 854 _____P________ -1 -17.4027 65.6491 99 7 233
1872275S14070 1873 24 SI MM NOT_NAMED 1872-10-03 15:00:00 NR -17.6014 65.3739 spur-split 854 816 _____P________ -1 -17.6014 65.3739 99 7 233
1872275S14070 1873 24 SI MM NOT_NAMED 1872-10-03 18:00:00 NR -17.7994 65.0987 spur-split 816 778 _____P________ -1 -17.7994 65.0987 99 7 233
1872275S14070 1873 24 SI MM NOT_NAMED 1872-10-03 21:00:00 NR -17.9975 64.8238 spur-split 778 751 _____P________ -1 -17.9975 64.8238 99 7 233
1872275S14070 1873 24 SI MM NOT_NAMED 1872-10-04 00:00:00 NR -18.1964 64.5490 spur-split 741 714 _____P________ -1 -18.1964 64.5490 99 7 233
1872275S14070 1873 24 SI MM NOT_NAMED 1872-10-04 03:00:00 NR -18.3970 64.2744 spur-split 714 677 _____P________ -1 -18.3970 64.2744 99 7 232
1872275S14070 1873 24 SI MM NOT_NAMED 1872-10-04 06:00:00 NR -18.6000 64.0000 reunion spur-split 677 640 _____O________ -1 -18.6000 64.0000 99 9.90000 7 231
1872275S14070 1873 24 SI MM NOT_NAMED 1872-10-04 09:00:00 NR -18.8173 63.7174 spur-split 640 604 _____P________ -1 -18.8173 63.7174 99 7 231
1872275S14070 1873 24 SI MM NOT_NAMED 1872-10-04 12:00:00 NR -19.0379 63.4339 spur-split 604 578 _____P________ -1 -19.0379 63.4339 99 7 230
1872275S14070 1873 24 SI MM NOT_NAMED 1872-10-04 15:00:00 NR -19.2596 63.1510 spur-split 575 540 _____P________ -1 -19.2596 63.1510 99 7 230
1872275S14070 1873 24 SI MM NOT_NAMED 1872-10-04 18:00:00 NR -19.4798 62.8703 spur-split 540 505 _____P________ -1 -19.4798 62.8703 99 7 230
1872275S14070 1873 24 SI MM NOT_NAMED 1872-10-04 21:00:00 NR -19.6963 62.5932 spur-split 505 471 _____P________ -1 -19.6963 62.5932 99 7 230
1872275S14070 1873 24 SI MM NOT_NAMED 1872-10-05 00:00:00 NR -19.9068 62.3214 spur-split 471 449 _____P________ -1 -19.9068 62.3214 99 7 231
1872275S14070 1873 24 SI MM NOT_NAMED 1872-10-05 03:00:00 NR -20.1088 62.0565 spur-split 449 417 _____P________ -1 -20.1088 62.0565 99 6 231
1872275S14070 1873 24 SI MM NOT_NAMED 1872-10-05 06:00:00 NR -20.3000 61.8000 reunion spur-split 417 396 _____O________ -1 -20.3000 61.8000 99 9.90000 6 232
1872275S14070 1873 24 SI MM NOT_NAMED 1872-10-05 09:00:00 NR -20.4788 61.5531 spur-split 396 366 _____P________ -1 -20.4788 61.5531 99 6 233
1872275S14070 1873 24 SI MM NOT_NAMED 1872-10-05 12:00:00 NR -20.6462 61.3151 spur-split 366 348 _____P________ -1 -20.6462 61.3151 99 5 233
1872275S14070 1873 24 SI MM NOT_NAMED 1872-10-05 15:00:00 NR -20.8037 61.0846 spur-split 348 329 _____P________ -1 -20.8037 61.0846 99 5 234
1872275S14070 1873 24 SI MM NOT_NAMED 1872-10-05 18:00:00 NR -20.9530 60.8604 spur-split 331 311 _____P________ -1 -20.9530 60.8604 99 5 235
1872275S14070 1873 24 SI MM NOT_NAMED 1872-10-05 21:00:00 NR -21.0957 60.6412 spur-split 304 288 _____P________ -1 -21.0957 60.6412 99 5 235
1872275S14070 1873 24 SI MM NOT_NAMED 1872-10-06 00:00:00 NR -21.2333 60.4256 spur-split 288 273 _____P________ -1 -21.2333 60.4256 99 5 236
1872275S14070 1873 24 SI MM NOT_NAMED 1872-10-06 03:00:00 NR -21.3676 60.2123 spur-split 278 263 _____P________ -1 -21.3676 60.2123 99 5 236
1872275S14070 1873 24 SI MM NOT_NAMED 1872-10-06 06:00:00 NR -21.5000 60.0000 reunion spur-split 263 _____O________ -1 -21.5000 60.0000 99 9.90000 5 236

About IBTrACS Database

This database is a web-friendly format of International Best Track Archive for Climate Stewardship (IBTrACS), a global best track data archive curated by NOAA dating back to 1842.

Updated: 2021-10-08